Time;durP1;ratioP1;P1;durP2;ratioP2;P2;SDS_P1;SDS_P2;PMS_P1;PMS_P2;Temp;Humidity;BMP_temperature;BMP_pressure;BME280_temperature;BME280_humidity;BME280_pressure;Samples;Min_cycle;Max_cycle;Signal;HPM_P1;HPM_P2
2022/02/20 00:00:28;;;;;;;;;8.00;7.80;;;;;10.11;28.90;98696.88;6261218;27;96871;-67
2022/02/20 00:03:31;;;;;;;;;11.00;10.00;;;;;10.09;29.04;98691.69;6254721;27;97441;-67
2022/02/20 00:06:36;;;;;;;;;9.00;8.00;;;;;10.11;28.86;98696.88;6252817;27;97750;-67
2022/02/20 00:09:41;;;;;;;;;11.50;10.50;;;;;10.08;28.91;98697.28;6254467;27;97883;-67
2022/02/20 00:12:45;;;;;;;;;9.00;8.00;;;;;10.05;28.86;98700.44;6253468;27;97456;-67
2022/02/20 00:15:49;;;;;;;;;9.50;8.00;;;;;9.92;28.83;98686.06;6235943;27;97161;-67
2022/02/20 00:18:52;;;;;;;;;9.00;8.00;;;;;9.94;28.81;98694.75;6254981;27;97343;-67
2022/02/20 00:21:56;;;;;;;;;11.20;10.80;;;;;9.92;28.95;98693.34;6249192;27;98273;-67
2022/02/20 00:25:00;;;;;;;;;9.00;9.00;;;;;9.92;29.05;98690.66;6252114;27;98307;-67
2022/02/20 00:28:05;;;;;;;;;8.00;8.00;;;;;9.87;28.96;98693.97;6251169;27;98213;-67
2022/02/20 00:31:08;;;;;;;;;9.00;8.00;;;;;9.83;28.98;98689.25;6248000;27;97533;-68
2022/02/20 00:34:12;;;;;;;;;9.75;8.00;;;;;9.77;29.15;98682.09;6250690;27;98054;-67
2022/02/20 00:37:16;;;;;;;;;10.00;8.00;;;;;9.78;29.11;98675.63;6235536;27;98336;-67
2022/02/20 00:40:20;;;;;;;;;11.00;9.80;;;;;9.73;29.26;98668.22;6230390;27;96864;-67
2022/02/20 00:43:23;;;;;;;;;9.00;7.60;;;;;9.70;29.29;98662.47;6252210;27;97570;-67
2022/02/20 00:46:26;;;;;;;;;9.40;8.40;;;;;9.68;29.25;98661.84;6252150;27;98445;-67
2022/02/20 00:49:29;;;;;;;;;9.00;8.00;;;;;9.66;29.33;98654.03;6234647;27;97985;-67
2022/02/20 00:52:34;;;;;;;;;10.00;8.00;;;;;9.70;29.07;98655.22;6249985;27;97664;-67
2022/02/20 00:55:39;;;;;;;;;9.00;8.00;;;;;9.71;29.19;98654.19;6238857;27;97441;-67
2022/02/20 00:58:42;;;;;;;;;9.40;8.00;;;;;9.66;29.27;98656.72;6242799;27;96755;-68
2022/02/20 01:01:45;;;;;;;;;9.00;7.00;;;;;9.65;29.27;98651.53;6253477;27;98555;-68
2022/02/20 01:04:48;;;;;;;;;9.60;8.00;;;;;9.65;29.20;98652.38;6223981;28;97881;-67
2022/02/20 01:07:55;;;;;;;;;6.00;5.00;;;;;9.65;29.22;98641.59;6211120;27;98483;-67
2022/02/20 01:10:58;;;;;;;;;6.00;6.00;;;;;9.65;29.06;98643.47;6241989;27;96875;-67
2022/02/20 01:14:01;;;;;;;;;10.60;9.00;;;;;9.56;29.13;98638.38;6244707;27;97691;-67
2022/02/20 01:17:05;;;;;;;;;8.00;6.00;;;;;9.66;29.14;98640.56;6243453;27;97377;-67
2022/02/20 01:20:11;;;;;;;;;5.20;5.20;;;;;9.62;29.02;98631.28;6260535;27;97293;-67
2022/02/20 01:23:15;;;;;;;;;7.00;7.00;;;;;9.61;29.25;98628.81;6262130;27;96287;-68
2022/02/20 01:26:23;;;;;;;;;7.60;6.60;;;;;9.57;29.15;98631.97;6256117;27;97454;-68
2022/02/20 01:29:26;;;;;;;;;7.00;6.00;;;;;9.61;29.35;98626.94;6242863;27;97078;-67
2022/02/20 01:32:30;;;;;;;;;7.00;5.00;;;;;9.56;29.03;98621.41;6261242;27;96837;-67
2022/02/20 01:35:33;;;;;;;;;5.75;5.50;;;;;9.58;29.00;98616.59;6261057;27;97149;-67
2022/02/20 01:38:38;;;;;;;;;6.00;6.00;;;;;9.55;29.05;98612.50;6241308;27;97058;-67
2022/02/20 01:41:42;;;;;;;;;6.00;6.00;;;;;9.47;29.30;98601.22;6243511;27;97608;-68
2022/02/20 01:44:46;;;;;;;;;5.75;4.25;;;;;9.51;29.29;98595.16;6243366;27;96587;-66
2022/02/20 01:47:49;;;;;;;;;5.00;4.00;;;;;9.54;29.14;98586.63;6243055;27;96707;-67
2022/02/20 01:50:52;;;;;;;;;8.40;8.00;;;;;9.57;29.11;98586.22;6225028;27;98353;-67
2022/02/20 01:53:57;;;;;;;;;6.50;6.00;;;;;9.56;29.10;98579.16;6243856;27;96619;-66
2022/02/20 01:57:01;;;;;;;;;9.00;7.00;;;;;9.63;29.15;98579.09;6238508;27;96597;-67
2022/02/20 02:00:25;;;;;;;;;10.00;9.00;;;;;9.65;29.03;98568.94;6256549;27;96836;-67
2022/02/20 02:03:38;;;;;;;;;11.60;10.60;;;;;9.62;29.08;98557.78;6256749;27;97795;-67
2022/02/20 02:06:48;;;;;;;;;9.25;9.00;;;;;9.54;29.05;98556.19;6224900;27;98784;-67
2022/02/20 02:10:06;;;;;;;;;8.00;7.00;;;;;9.53;29.01;98554.56;6246694;27;97642;-67
2022/02/20 02:13:28;;;;;;;;;6.00;6.00;;;;;9.51;29.10;98543.22;6265922;27;97501;-67
2022/02/20 02:16:32;;;;;;;;;5.00;5.00;;;;;9.42;29.45;98544.56;6246913;27;96796;-68
2022/02/20 02:19:58;;;;;;;;;6.00;5.00;;;;;9.44;29.25;98543.25;6264679;27;96877;-68
2022/02/20 02:23:18;;;;;;;;;6.00;5.00;;;;;9.32;29.47;98539.69;6247541;27;96396;-68
2022/02/20 02:26:37;;;;;;;;;5.00;5.00;;;;;9.33;29.36;98527.88;6227317;27;98331;-69
2022/02/20 02:30:09;;;;;;;;;6.00;5.00;;;;;9.16;29.69;98536.72;6232556;27;96975;-67
2022/02/20 02:33:13;;;;;;;;;4.60;4.00;;;;;9.27;29.54;98530.63;6252067;27;97879;-68
2022/02/20 02:36:18;;;;;;;;;6.00;3.40;;;;;9.27;29.63;98527.94;6251533;27;97204;-67
2022/02/20 02:39:23;;;;;;;;;4.00;4.00;;;;;9.31;29.55;98529.13;6237915;27;97719;-69
2022/02/20 02:42:27;;;;;;;;;4.60;4.60;;;;;9.20;29.65;98530.69;6244279;27;97702;-68
2022/02/20 02:45:30;;;;;;;;;4.00;4.00;;;;;9.09;29.96;98515.25;6219302;27;99394;-67
2022/02/20 02:48:48;;;;;;;;;5.20;4.20;;;;;9.01;30.01;98511.00;6241221;27;97482;-67
2022/02/20 02:51:54;;;;;;;;;4.25;4.00;;;;;9.09;29.81;98517.94;6259982;27;97349;-67
2022/02/20 02:54:59;;;;;;;;;6.40;5.00;;;;;8.97;30.14;98519.72;6229361;27;96830;-67
2022/02/20 02:58:05;;;;;;;;;5.00;4.25;;;;;8.79;30.32;98498.19;6264138;27;97444;-67
2022/02/20 03:01:09;;;;;;;;;4.00;3.40;;;;;8.86;30.42;98499.75;6243584;27;97684;-67
2022/02/20 03:04:12;;;;;;;;;4.20;4.00;;;;;8.91;30.29;98493.72;6229143;27;98287;-67
2022/02/20 03:07:16;;;;;;;;;5.00;5.00;;;;;8.93;30.13;98484.41;6221938;28;99639;-67
2022/02/20 03:10:21;;;;;;;;;2.00;2.00;;;;;8.88;30.12;98483.41;6263012;27;97449;-67
2022/02/20 03:13:24;;;;;;;;;5.00;4.40;;;;;8.86;30.30;98472.88;6246547;27;98603;-66
2022/02/20 03:16:27;;;;;;;;;3.00;3.00;;;;;8.88;30.14;98461.91;6264025;27;97484;-68
2022/02/20 03:19:31;;;;;;;;;5.00;4.67;;;;;8.97;30.04;98461.41;6243933;27;96727;-67
2022/02/20 03:22:34;;;;;;;;;3.00;3.00;;;;;9.03;29.94;98457.00;6230658;27;97864;-66
2022/02/20 03:25:39;;;;;;;;;4.00;3.00;;;;;9.02;30.00;98433.84;6245146;27;97507;-67
2022/02/20 03:28:47;;;;;;;;;3.00;3.00;;;;;9.06;29.75;98437.72;6244354;27;97525;-67
2022/02/20 03:31:53;;;;;;;;;3.00;2.60;;;;;9.14;29.61;98434.75;6244360;27;96917;-67
2022/02/20 03:34:56;;;;;;;;;2.00;2.00;;;;;9.15;29.83;98441.78;6238881;27;98311;-66
2022/02/20 03:38:00;;;;;;;;;4.60;3.00;;;;;9.15;29.65;98428.31;6265043;27;96673;-66
2022/02/20 03:41:10;;;;;;;;;2.67;2.00;;;;;9.20;29.78;98416.88;6246503;27;97126;-66
2022/02/20 03:44:16;;;;;;;;;3.00;3.00;;;;;9.10;29.83;98415.53;6263205;27;97541;-66
2022/02/20 03:47:38;;;;;;;;;3.00;2.00;;;;;9.04;29.90;98421.81;6229889;27;98291;-67
2022/02/20 03:50:42;;;;;;;;;2.00;2.00;;;;;9.07;29.82;98413.31;6245083;27;97452;-67
2022/02/20 03:53:46;;;;;;;;;3.00;2.00;;;;;9.15;29.62;98417.56;6245962;27;96659;-67
2022/02/20 03:56:51;;;;;;;;;3.00;3.00;;;;;9.13;29.82;98411.59;6244048;27;99487;-68
2022/02/20 04:00:21;;;;;;;;;3.40;3.40;;;;;9.09;29.94;98395.06;6204848;27;97431;-67
2022/02/20 04:03:42;;;;;;;;;6.00;5.00;;;;;9.00;29.92;98404.50;6243082;27;97562;-67
2022/02/20 04:06:46;;;;;;;;;2.40;2.40;;;;;9.00;29.94;98400.97;6242170;27;98498;-67
2022/02/20 04:09:50;;;;;;;;;3.00;2.00;;;;;8.87;30.37;98401.94;6228986;27;96800;-66
2022/02/20 04:12:56;;;;;;;;;2.00;2.00;;;;;8.95;30.25;98387.38;6250156;27;97285;-67
2022/02/20 04:16:02;;;;;;;;;4.00;4.00;;;;;9.01;30.20;98387.31;6246144;27;97434;-68
2022/02/20 04:19:11;;;;;;;;;3.00;3.00;;;;;8.91;30.16;98370.06;6244863;27;97344;-66
2022/02/20 04:22:19;;;;;;;;;3.00;3.00;;;;;8.95;30.03;98365.88;6227513;27;98332;-66
2022/02/20 04:25:22;;;;;;;;;2.00;2.00;;;;;8.91;30.07;98364.69;6243628;27;96870;-67
2022/02/20 04:28:32;;;;;;;;;2.80;2.00;;;;;8.88;30.08;98349.00;6244933;27;97089;-67
2022/02/20 04:31:37;;;;;;;;;3.00;2.60;;;;;8.79;30.39;98345.81;6226522;27;98333;-67
2022/02/20 04:34:42;;;;;;;;;4.00;4.00;;;;;9.03;30.01;98342.22;6247725;27;97463;-67
2022/02/20 04:37:47;;;;;;;;;2.00;2.00;;;;;9.09;29.98;98343.97;6244747;27;98326;-67
2022/02/20 04:40:50;;;;;;;;;3.20;3.00;;;;;9.08;30.13;98346.91;6223654;27;98413;-67
2022/02/20 04:44:03;;;;;;;;;3.00;2.75;;;;;9.18;29.76;98339.16;6225050;27;96960;-68
2022/02/20 04:47:07;;;;;;;;;4.60;4.00;;;;;9.10;29.89;98336.75;6246114;27;97357;-67
2022/02/20 04:50:11;;;;;;;;;3.00;3.00;;;;;8.95;30.16;98312.94;6236059;27;97354;-68
2022/02/20 04:53:20;;;;;;;;;3.00;2.60;;;;;9.12;29.88;98327.41;6230045;27;98282;-67
2022/02/20 04:56:25;;;;;;;;;3.25;3.00;;;;;9.10;30.04;98325.97;6243939;27;96281;-67
2022/02/20 04:59:29;;;;;;;;;3.00;3.00;;;;;9.02;29.84;98315.56;6244606;27;97031;-67
2022/02/20 05:02:36;;;;;;;;;3.75;3.00;;;;;9.06;30.04;98300.59;6243135;27;97411;-67
2022/02/20 05:05:40;;;;;;;;;3.40;3.00;;;;;9.21;29.82;98311.78;6243740;27;97568;-67
2022/02/20 05:08:43;;;;;;;;;3.60;3.00;;;;;9.09;29.94;98300.97;6243642;27;97334;-67
2022/02/20 05:11:52;;;;;;;;;3.40;2.60;;;;;9.23;29.78;98298.94;6244905;27;96706;-67
2022/02/20 05:14:57;;;;;;;;;2.00;2.00;;;;;9.36;29.56;98285.31;6239425;27;96739;-66
2022/02/20 05:18:09;;;;;;;;;3.00;3.00;;;;;9.42;29.14;98283.56;6253551;27;96704;-67
2022/02/20 05:21:13;;;;;;;;;2.00;1.20;;;;;9.42;29.09;98275.50;6240256;27;97454;-66
2022/02/20 05:24:18;;;;;;;;;2.00;2.00;;;;;9.49;29.17;98263.59;6256957;27;96970;-68
2022/02/20 05:27:22;;;;;;;;;2.00;2.00;;;;;9.55;28.82;98254.59;6260933;27;98219;-66
2022/02/20 05:30:30;;;;;;;;;2.00;2.00;;;;;9.66;28.77;98242.22;6245234;27;97388;-66
2022/02/20 05:33:44;;;;;;;;;3.00;3.00;;;;;9.78;28.79;98234.16;6253228;27;96537;-66
2022/02/20 05:36:47;;;;;;;;;2.20;2.00;;;;;9.79;28.32;98214.25;6251199;27;97796;-66
2022/02/20 05:40:01;;;;;;;;;3.00;3.00;;;;;9.70;28.46;98204.88;6245788;27;97142;-67
2022/02/20 05:43:06;;;;;;;;;1.00;1.00;;;;;9.58;28.42;98208.38;6247646;27;96606;-66
2022/02/20 05:46:13;;;;;;;;;3.60;3.60;;;;;9.52;28.66;98203.94;6247660;27;97555;-68
2022/02/20 05:49:16;;;;;;;;;3.00;3.00;;;;;9.69;28.65;98193.31;6248658;27;97636;-66
2022/02/20 05:52:34;;;;;;;;;5.00;4.00;;;;;9.78;28.43;98191.91;6249923;27;97020;-68
2022/02/20 05:55:38;;;;;;;;;3.00;2.00;;;;;9.64;28.51;98195.88;6252188;27;96733;-67
2022/02/20 05:58:41;;;;;;;;;2.00;2.00;;;;;9.56;28.65;98188.16;6244434;27;97302;-68
2022/02/20 06:01:46;;;;;;;;;4.00;4.00;;;;;9.54;28.71;98176.78;6250425;27;98224;-67
2022/02/20 06:04:52;;;;;;;;;3.20;2.20;;;;;9.66;28.75;98180.31;6262142;27;97020;-66
2022/02/20 06:08:21;;;;;;;;;4.00;4.00;;;;;9.69;28.77;98168.25;6258252;27;97333;-68
2022/02/20 06:11:30;;;;;;;;;3.00;3.00;;;;;9.80;28.63;98160.19;6251967;27;97046;-66
2022/02/20 06:14:52;;;;;;;;;2.40;2.40;;;;;9.87;28.57;98166.25;6245186;27;96856;-66
2022/02/20 06:18:08;;;;;;;;;2.60;2.00;;;;;9.94;28.46;98153.50;6245083;27;96674;-67
2022/02/20 06:21:37;;;;;;;;;4.00;3.00;;;;;9.97;28.55;98160.28;6218345;27;96959;-67
2022/02/20 06:24:51;;;;;;;;;1.00;1.00;;;;;10.12;28.40;98168.72;6244389;27;96783;-67
2022/02/20 06:28:09;;;;;;;;;3.00;3.00;;;;;10.19;28.29;98155.16;6247130;27;97505;-67
2022/02/20 06:31:13;;;;;;;;;2.40;2.00;;;;;10.19;28.39;98155.16;6244646;27;97407;-66
2022/02/20 06:34:18;;;;;;;;;4.00;4.00;;;;;10.34;28.14;98160.88;6245962;27;96703;-66
2022/02/20 06:37:21;;;;;;;;;2.00;2.00;;;;;10.26;28.42;98156.66;6229028;27;96862;-67
2022/02/20 06:40:25;;;;;;;;;4.00;3.00;;;;;10.38;28.37;98162.03;6245823;27;96659;-67
2022/02/20 06:43:30;;;;;;;;;3.00;3.00;;;;;10.68;28.11;98172.59;6245385;27;96796;-67
2022/02/20 06:47:03;;;;;;;;;3.00;2.00;;;;;11.34;27.49;98149.56;6234804;27;97079;-67
2022/02/20 06:50:19;;;;;;;;;2.00;2.00;;;;;11.59;27.38;98172.38;6229691;27;96717;-67
2022/02/20 06:53:48;;;;;;;;;3.60;3.20;;;;;11.41;27.57;98152.91;6239756;27;98000;-67
2022/02/20 06:56:58;;;;;;;;;3.00;3.00;;;;;11.19;28.22;98156.28;6241357;27;96738;-67
2022/02/20 07:00:02;;;;;;;;;4.00;3.60;;;;;12.81;26.28;98163.25;6264454;27;97067;-67
2022/02/20 07:03:06;;;;;;;;;3.00;3.00;;;;;15.14;23.53;98160.28;6260073;27;98022;-68
2022/02/20 07:06:10;;;;;;;;;3.00;2.00;;;;;17.26;21.65;98157.13;6260834;27;97470;-67
2022/02/20 07:09:14;;;;;;;;;2.25;1.75;;;;;18.32;20.28;98157.34;6257657;27;96718;-67
2022/02/20 07:12:18;;;;;;;;;1.00;1.00;;;;;19.39;20.18;98161.16;6253717;27;96575;-68
2022/02/20 07:15:21;;;;;;;;;1.00;1.00;;;;;18.22;21.50;98174.63;6226552;27;97732;-68
2022/02/20 07:18:25;;;;;;;;;2.00;2.00;;;;;17.18;22.79;98178.69;6242494;27;97430;-68
2022/02/20 07:21:29;;;;;;;;;2.00;2.00;;;;;17.09;23.50;98178.47;6263613;27;97430;-68
2022/02/20 07:24:38;;;;;;;;;1.33;1.00;;;;;17.24;23.77;98186.56;6237885;27;97785;-66
2022/02/20 07:27:44;;;;;;;;;2.00;2.00;;;;;18.37;22.96;98163.56;6250098;27;96849;-66
2022/02/20 07:30:48;;;;;;;;;2.00;1.00;;;;;18.79;22.86;98189.31;6265137;27;96519;-66
2022/02/20 07:33:54;;;;;;;;;1.20;1.20;;;;;19.54;22.28;98195.69;6265786;27;97900;-66
2022/02/20 07:36:58;;;;;;;;;4.00;3.00;;;;;20.58;21.17;98176.09;6247283;27;97959;-67
2022/02/20 07:40:02;;;;;;;;;1.60;1.60;;;;;20.26;21.52;98176.97;6257648;27;97270;-66
2022/02/20 07:43:05;;;;;;;;;2.00;2.00;;;;;20.77;21.31;98176.03;6261567;27;96575;-66
2022/02/20 07:46:09;;;;;;;;;2.00;2.00;;;;;20.91;20.99;98176.84;6259588;27;99640;-66
2022/02/20 07:49:14;;;;;;;;;3.00;3.00;;;;;19.46;23.03;98193.59;6244404;27;97170;-66
2022/02/20 07:52:21;;;;;;;;;2.00;2.00;;;;;17.94;25.23;98199.97;6267379;27;97470;-66
2022/02/20 07:55:25;;;;;;;;;3.00;3.00;;;;;16.14;27.82;98206.78;6261861;27;97808;-66
2022/02/20 07:58:28;;;;;;;;;2.00;2.00;;;;;15.09;29.94;98207.22;6262916;27;97477;-67
2022/02/20 08:01:32;;;;;;;;;3.00;2.00;;;;;14.55;30.86;98214.06;6246537;27;97467;-66
2022/02/20 08:04:35;;;;;;;;;3.00;2.00;;;;;13.94;32.06;98208.22;6259221;27;96615;-67
2022/02/20 08:07:40;;;;;;;;;3.00;2.60;;;;;13.56;32.86;98195.72;6263907;27;97886;-66
2022/02/20 08:10:43;;;;;;;;;3.00;2.00;;;;;13.05;35.10;98217.94;6261695;27;97462;-65
2022/02/20 08:13:47;;;;;;;;;3.00;3.00;;;;;12.60;35.97;98224.41;6263004;27;97513;-67
2022/02/20 08:16:50;;;;;;;;;2.00;2.00;;;;;12.39;36.38;98203.56;6262443;27;96650;-66
2022/02/20 08:19:53;;;;;;;;;2.00;2.00;;;;;12.22;37.40;98213.63;6262228;27;96745;-66
2022/02/20 08:23:00;;;;;;;;;2.00;2.00;;;;;11.93;38.77;98219.09;6252244;27;96713;-66
2022/02/20 08:26:03;;;;;;;;;1.40;1.00;;;;;11.65;39.95;98217.28;6259208;27;96701;-67
2022/02/20 08:29:07;;;;;;;;;2.00;2.00;;;;;11.67;40.21;98222.44;6255024;27;96651;-66
2022/02/20 08:32:10;;;;;;;;;2.00;1.60;;;;;11.81;40.16;98213.00;6260092;27;96689;-66
2022/02/20 08:35:14;;;;;;;;;2.00;1.00;;;;;11.85;40.56;98214.13;6261682;27;97339;-66
2022/02/20 08:38:21;;;;;;;;;2.00;2.00;;;;;11.62;41.20;98227.75;6261696;27;97811;-66
2022/02/20 08:41:25;;;;;;;;;1.75;1.00;;;;;12.18;39.82;98215.97;6262616;27;97502;-65
2022/02/20 08:44:33;;;;;;;;;3.00;2.00;;;;;12.33;39.47;98202.69;6262719;27;97503;-65
2022/02/20 08:47:37;;;;;;;;;2.00;2.00;;;;;12.38;39.66;98210.84;6262978;27;97478;-66
2022/02/20 08:50:41;;;;;;;;;2.00;2.00;;;;;12.24;40.22;98214.16;6256061;27;96693;-66
2022/02/20 08:53:47;;;;;;;;;4.00;3.00;;;;;11.97;41.51;98217.53;6267656;27;96561;-66
2022/02/20 08:56:50;;;;;;;;;2.00;1.00;;;;;11.86;41.83;98215.78;6247295;27;97484;-66
2022/02/20 08:59:55;;;;;;;;;1.80;1.00;;;;;11.54;43.00;98228.16;6263712;27;96540;-66
2022/02/20 09:02:58;;;;;;;;;1.60;1.00;;;;;11.56;43.49;98247.63;6244471;27;98398;-66
2022/02/20 09:06:01;;;;;;;;;2.00;2.00;;;;;12.04;42.15;98225.50;6264047;27;96585;-66
2022/02/20 09:09:06;;;;;;;;;2.00;2.00;;;;;12.43;41.53;98216.34;6288410;27;96956;-66
2022/02/20 09:12:10;;;;;;;;;3.00;2.00;;;;;12.32;41.65;98224.53;6232059;27;98372;-65
2022/02/20 09:15:13;;;;;;;;;3.00;2.00;;;;;12.02;42.24;98236.53;6248071;27;96920;-66
2022/02/20 09:18:17;;;;;;;;;2.40;2.40;;;;;11.47;43.54;98239.13;6251631;27;96750;-65
2022/02/20 09:21:20;;;;;;;;;3.00;3.00;;;;;11.27;44.50;98236.88;6257593;27;98055;-66
2022/02/20 09:24:25;;;;;;;;;2.00;2.00;;;;;11.31;44.85;98239.91;6239552;27;97285;-66
2022/02/20 09:27:29;;;;;;;;;3.00;3.00;;;;;10.91;45.90;98231.84;6246137;27;96966;-65
2022/02/20 09:30:33;;;;;;;;;3.00;2.00;;;;;10.92;46.23;98238.06;6242611;27;96874;-65
2022/02/20 09:33:36;;;;;;;;;2.00;2.00;;;;;10.97;46.09;98236.28;6261853;27;97473;-65
2022/02/20 09:36:39;;;;;;;;;3.00;3.00;;;;;10.81;46.76;98231.63;6245116;27;96842;-65
2022/02/20 09:39:44;;;;;;;;;4.00;4.00;;;;;10.71;47.26;98229.56;6259040;27;97211;-66
2022/02/20 09:42:49;;;;;;;;;3.00;3.00;;;;;10.48;48.11;98251.16;6232778;27;97569;-65
2022/02/20 09:45:52;;;;;;;;;1.00;1.00;;;;;10.22;48.84;98230.91;6261359;27;97146;-65
2022/02/20 09:48:59;;;;;;;;;4.40;4.00;;;;;10.21;48.86;98240.06;6261094;27;96760;-65
2022/02/20 09:52:03;;;;;;;;;3.00;3.00;;;;;10.09;49.17;98252.69;6259442;27;97493;-65
2022/02/20 09:55:09;;;;;;;;;3.00;3.00;;;;;10.01;50.03;98242.25;6257523;27;97351;-65
2022/02/20 09:58:13;;;;;;;;;5.00;4.00;;;;;10.09;50.31;98250.00;6230148;27;97947;-65
2022/02/20 10:01:17;;;;;;;;;3.00;2.75;;;;;10.10;49.88;98253.50;6259468;27;97410;-65
2022/02/20 10:04:20;;;;;;;;;3.60;3.60;;;;;10.17;49.81;98241.56;6255430;27;97223;-66
2022/02/20 10:07:28;;;;;;;;;3.40;3.40;;;;;10.09;49.91;98233.00;6229939;27;97146;-65
2022/02/20 10:10:33;;;;;;;;;4.50;4.00;;;;;10.27;49.76;98246.38;6258432;27;96847;-65
2022/02/20 10:13:36;;;;;;;;;5.00;4.33;;;;;10.47;49.40;98246.00;6243500;27;96787;-65
2022/02/20 10:16:40;;;;;;;;;4.00;4.00;;;;;10.51;49.53;98247.16;6261521;27;97504;-65
2022/02/20 10:20:04;;;;;;;;;3.00;2.60;;;;;10.55;49.30;98240.28;6262555;27;97721;-66
2022/02/20 10:23:37;;;;;;;;;4.20;3.20;;;;;10.50;49.18;98246.38;6261494;27;97473;-65
2022/02/20 10:27:07;;;;;;;;;5.00;4.00;;;;;10.53;49.40;98245.88;6261265;27;96564;-65
2022/02/20 10:30:25;;;;;;;;;4.00;4.00;;;;;10.52;49.18;98246.94;6264958;27;98016;-66
2022/02/20 10:33:28;;;;;;;;;6.00;5.40;;;;;10.55;49.28;98238.41;6246235;27;100077;-66
2022/02/20 10:36:48;;;;;;;;;3.40;3.40;;;;;10.70;49.41;98233.31;6257049;27;96821;-66
2022/02/20 10:39:52;;;;;;;;;4.00;4.00;;;;;10.78;49.22;98232.94;6267048;27;96519;-66
2022/02/20 10:42:58;;;;;;;;;5.00;4.00;;;;;10.84;49.00;98239.25;6257678;27;98403;-66
2022/02/20 10:46:09;;;;;;;;;4.00;4.00;;;;;10.80;48.75;98244.28;6263163;27;97090;-66
2022/02/20 10:49:23;;;;;;;;;5.00;5.00;;;;;10.73;48.50;98238.22;6247259;27;97488;-67
2022/02/20 10:52:28;;;;;;;;;6.20;6.00;;;;;10.84;48.08;98239.25;6250496;27;97114;-66
2022/02/20 10:55:37;;;;;;;;;5.20;4.00;;;;;10.81;48.00;98234.34;6231763;27;97943;-66
2022/02/20 10:58:44;;;;;;;;;4.00;3.00;;;;;10.86;48.26;98232.56;6248951;27;96564;-67
2022/02/20 11:06:16;;;;;;;;;5.20;4.80;;;;;11.02;47.31;98236.38;6253577;27;97142;-65
2022/02/20 11:09:19;;;;;;;;;6.50;6.00;;;;;10.99;46.87;98239.56;6261270;27;96898;-66
2022/02/20 11:12:24;;;;;;;;;4.00;4.00;;;;;10.90;47.13;98232.09;6246327;27;98315;-65
2022/02/20 11:15:29;;;;;;;;;6.00;5.00;;;;;10.79;47.12;98234.59;6246013;27;99670;-65
2022/02/20 11:18:37;;;;;;;;;7.00;5.00;;;;;10.86;47.00;98223.66;6265803;27;96850;-66
2022/02/20 11:21:44;;;;;;;;;5.00;4.00;;;;;10.92;46.63;98221.88;6254379;27;97963;-65
2022/02/20 11:24:51;;;;;;;;;4.00;4.00;;;;;10.82;46.48;98227.88;6256131;27;96838;-66
2022/02/20 11:28:15;;;;;;;;;4.00;3.33;;;;;10.74;46.76;98229.09;6237693;27;97508;-65
2022/02/20 11:31:20;;;;;;;;;6.00;5.00;;;;;10.72;46.44;98206.94;6265367;27;96597;-65
2022/02/20 11:34:23;;;;;;;;;3.80;3.80;;;;;10.85;46.68;98227.41;6261740;27;96639;-65
2022/02/20 11:37:47;;;;;;;;;5.00;5.00;;;;;10.69;46.58;98228.16;6260186;27;98378;-66
2022/02/20 11:40:53;;;;;;;;;5.00;4.50;;;;;10.80;46.30;98221.91;6244949;27;96897;-66
2022/02/20 11:43:57;;;;;;;;;4.20;4.20;;;;;10.97;45.91;98228.19;6257912;27;97415;-65
2022/02/20 11:47:01;;;;;;;;;6.00;6.00;;;;;10.99;45.72;98231.47;6234693;27;97870;-66
2022/02/20 11:50:35;;;;;;;;;5.00;5.00;;;;;11.11;45.44;98228.72;6244780;27;97507;-66
2022/02/20 11:53:39;;;;;;;;;5.60;5.00;;;;;11.24;45.17;98223.03;6242721;27;97749;-66
2022/02/20 11:56:44;;;;;;;;;6.20;5.20;;;;;11.37;44.92;98235.41;6258780;27;97153;-66
2022/02/20 12:00:14;;;;;;;;;4.60;3.40;;;;;11.38;44.71;98226.25;6255892;27;99470;-65
2022/02/20 12:03:19;;;;;;;;;5.00;5.00;;;;;11.30;44.91;98225.56;6247754;27;97074;-65
2022/02/20 12:06:26;;;;;;;;;5.00;5.00;;;;;11.47;44.40;98224.78;6260488;27;96677;-65
2022/02/20 12:09:29;;;;;;;;;6.60;6.00;;;;;11.54;44.48;98210.06;6252499;27;96847;-65
2022/02/20 12:12:34;;;;;;;;;5.50;4.50;;;;;11.60;43.98;98216.38;6258863;27;96827;-65
2022/02/20 12:15:39;;;;;;;;;4.00;4.00;;;;;11.81;43.64;98213.00;6261305;27;96732;-66
2022/02/20 12:19:11;;;;;;;;;4.00;4.00;;;;;11.95;43.20;98214.28;6264282;27;96976;-66
2022/02/20 12:22:26;;;;;;;;;6.00;4.00;;;;;12.13;42.50;98214.00;6245953;27;96748;-66
2022/02/20 12:25:50;;;;;;;;;4.00;4.00;;;;;12.48;41.72;98205.59;6254988;27;97401;-65
2022/02/20 12:28:53;;;;;;;;;3.40;3.00;;;;;12.97;40.83;98209.16;6260913;27;96741;-66
2022/02/20 12:32:03;;;;;;;;;5.00;5.00;;;;;13.43;39.65;98198.84;6246384;27;98894;-66
2022/02/20 12:35:17;;;;;;;;;3.00;3.00;;;;;13.84;38.91;98206.25;6231474;27;99694;-65
2022/02/20 12:38:20;;;;;;;;;2.40;2.40;;;;;13.85;38.61;98197.03;6263104;27;97002;-67
2022/02/20 12:41:24;;;;;;;;;4.00;3.60;;;;;14.26;37.62;98181.88;6260848;27;96980;-66
2022/02/20 12:44:27;;;;;;;;;5.00;5.00;;;;;14.38;37.52;98189.81;6252999;27;96500;-66
2022/02/20 12:47:36;;;;;;;;;4.40;4.40;;;;;14.36;37.17;98178.44;6250527;27;96672;-66
2022/02/20 12:50:44;;;;;;;;;4.00;3.40;;;;;14.22;36.77;98188.88;6262768;27;97443;-67
2022/02/20 12:53:47;;;;;;;;;5.00;4.00;;;;;14.02;37.00;98190.66;6264478;27;97082;-66
2022/02/20 12:57:07;;;;;;;;;5.00;4.00;;;;;14.08;37.16;98179.59;6262303;27;97118;-66
2022/02/20 13:00:12;;;;;;;;;2.75;2.75;;;;;14.22;37.33;98183.47;6226632;27;99660;-65
2022/02/20 13:03:17;;;;;;;;;3.00;3.00;;;;;14.29;36.67;98185.94;6256862;27;97787;-66
2022/02/20 13:06:38;;;;;;;;;4.00;4.00;;;;;14.61;35.95;98178.53;6260114;27;97514;-67
2022/02/20 13:09:42;;;;;;;;;3.75;3.00;;;;;14.42;36.00;98182.78;6260979;27;97395;-67
2022/02/20 13:13:07;;;;;;;;;3.60;3.60;;;;;14.41;35.75;98178.47;6243279;27;97322;-66
2022/02/20 13:16:13;;;;;;;;;4.00;3.50;;;;;14.37;36.43;98174.63;6251709;27;96473;-66
2022/02/20 13:19:17;;;;;;;;;5.00;4.00;;;;;14.30;36.36;98177.56;6257534;27;96490;-66
2022/02/20 13:22:29;;;;;;;;;5.00;5.00;;;;;14.08;36.91;98178.75;6259206;27;96608;-66
2022/02/20 13:25:33;;;;;;;;;4.00;4.00;;;;;14.10;36.55;98163.88;6256577;27;96772;-66
2022/02/20 13:28:38;;;;;;;;;3.00;3.00;;;;;14.07;36.11;98177.16;6257581;27;96609;-65
2022/02/20 13:31:47;;;;;;;;;3.60;3.00;;;;;14.08;36.07;98176.03;6259600;27;96720;-66
2022/02/20 13:34:57;;;;;;;;;3.60;3.60;;;;;13.99;35.83;98164.88;6256676;27;97598;-65
2022/02/20 13:38:02;;;;;;;;;3.00;3.00;;;;;13.95;35.71;98160.25;6256479;27;96790;-65
2022/02/20 13:41:10;;;;;;;;;2.00;2.00;;;;;14.07;35.79;98160.88;6257836;27;97331;-65
2022/02/20 13:44:23;;;;;;;;;2.60;2.60;;;;;13.81;35.60;98163.41;6257008;27;96729;-65
2022/02/20 13:47:31;;;;;;;;;2.00;2.00;;;;;13.86;35.62;98165.34;6257055;27;97478;-65
2022/02/20 13:50:34;;;;;;;;;4.40;4.00;;;;;14.21;35.46;98165.59;6262603;27;97466;-66
2022/02/20 13:53:43;;;;;;;;;3.40;2.60;;;;;14.52;34.87;98168.47;6235902;27;99264;-66
2022/02/20 13:56:50;;;;;;;;;4.00;3.00;;;;;15.11;33.88;98158.06;6256702;27;96630;-66
2022/02/20 13:59:54;;;;;;;;;4.00;4.00;;;;;15.52;32.84;98148.94;6254687;27;97916;-65
2022/02/20 14:02:58;;;;;;;;;3.60;3.60;;;;;15.90;32.22;98150.28;6228262;27;97810;-66
2022/02/20 14:06:02;;;;;;;;;5.00;4.75;;;;;15.55;32.41;98151.09;6245448;27;97164;-63
2022/02/20 14:09:06;;;;;;;;;3.80;3.80;;;;;15.44;32.73;98157.56;6272188;27;97041;-63
2022/02/20 14:12:24;;;;;;;;;4.00;4.00;;;;;15.51;32.38;98143.78;6246901;27;97214;-63
2022/02/20 14:15:34;;;;;;;;;5.00;4.00;;;;;15.84;32.15;98134.22;6247352;27;97992;-65
2022/02/20 14:18:45;;;;;;;;;3.00;3.00;;;;;16.25;31.83;98140.41;6272322;27;97515;-65
2022/02/20 14:21:54;;;;;;;;;3.00;3.00;;;;;16.40;30.63;98133.03;6258515;27;96432;-64
2022/02/20 14:24:59;;;;;;;;;5.00;4.00;;;;;16.62;29.44;98142.75;6265828;27;97432;-64
2022/02/20 14:28:04;;;;;;;;;5.00;5.00;;;;;16.61;29.75;98139.25;6264655;27;97017;-65
2022/02/20 14:31:09;;;;;;;;;3.00;3.00;;;;;16.43;29.88;98146.06;6266222;27;97537;-64
2022/02/20 14:34:20;;;;;;;;;3.00;3.00;;;;;16.20;29.72;98148.59;6263446;27;98097;-63
2022/02/20 14:37:34;;;;;;;;;3.00;3.00;;;;;15.90;29.81;98144.84;6256246;27;96698;-64
2022/02/20 14:40:38;;;;;;;;;4.00;3.40;;;;;15.63;30.27;98157.09;6253421;27;97746;-63
2022/02/20 14:43:43;;;;;;;;;7.00;5.00;;;;;15.18;31.13;98142.34;6264315;27;96522;-63
2022/02/20 14:46:46;;;;;;;;;2.25;2.00;;;;;14.95;31.27;98149.09;6264623;27;97486;-63
2022/02/20 14:49:50;;;;;;;;;2.75;2.75;;;;;14.82;31.49;98136.03;6262793;27;97760;-64